createdAt,value
2023-02-02T00:00:23.596Z,9.20
2023-02-02T00:02:50.283Z,17.88
2023-02-02T00:05:17.117Z,9.85
2023-02-02T00:07:43.716Z,15.55
2023-02-02T00:10:10.949Z,8.90
2023-02-02T00:12:37.525Z,11.18
2023-02-02T00:15:04.451Z,10.63
2023-02-02T00:17:31.098Z,16.67
2023-02-02T00:19:57.724Z,10.25
2023-02-02T00:22:24.302Z,15.60
2023-02-02T00:24:50.893Z,10.18
2023-02-02T00:27:17.383Z,10.95
2023-02-02T00:29:44.698Z,16.13
2023-02-02T00:32:11.513Z,13.13
2023-02-02T00:34:38.339Z,15.37
2023-02-02T00:37:04.973Z,10.73
2023-02-02T00:39:31.487Z,15.55
2023-02-02T00:41:58.133Z,12.90
2023-02-02T00:44:43.246Z,13.10
2023-02-02T00:47:09.886Z,10.67
2023-02-02T00:49:36.535Z,14.70
2023-02-02T00:52:03.435Z,9.30
2023-02-02T00:54:30.227Z,12.27
2023-02-02T00:56:56.834Z,15.68
2023-02-02T00:59:23.458Z,16.63
2023-02-02T01:01:50.077Z,10.52
2023-02-02T01:04:16.704Z,13.55
2023-02-02T01:06:43.543Z,14.55
2023-02-02T01:09:10.219Z,12.15
2023-02-02T01:11:36.982Z,13.87
2023-02-02T01:14:03.844Z,5.30
2023-02-02T01:16:30.602Z,8.15
2023-02-02T01:18:57.645Z,10.65
2023-02-02T01:21:24.261Z,11.00
2023-02-02T01:23:50.818Z,12.67
2023-02-02T01:26:17.627Z,14.40
2023-02-02T01:28:45.075Z,11.30
2023-02-02T01:31:15.061Z,14.10
2023-02-02T01:33:43.615Z,10.75
2023-02-02T01:36:13.305Z,12.07
2023-02-02T01:38:40.315Z,10.55
2023-02-02T01:41:07.156Z,15.43
2023-02-02T01:43:45.896Z,16.15
2023-02-02T01:46:17.752Z,11.70
2023-02-02T01:48:48.770Z,16.27
2023-02-02T01:51:20.703Z,7.60
2023-02-02T01:53:49.683Z,12.55
2023-02-02T01:56:25.667Z,12.23
2023-02-02T01:58:53.062Z,13.95
2023-02-02T02:01:19.792Z,10.23
2023-02-02T02:03:46.694Z,14.48
2023-02-02T02:06:17.473Z,8.43
2023-02-02T02:09:00.181Z,15.95
2023-02-02T02:11:27.439Z,14.38
2023-02-02T02:14:14.819Z,9.93
2023-02-02T02:17:15.423Z,12.07
2023-02-02T02:20:22.075Z,8.95
2023-02-02T02:23:25.662Z,13.38
2023-02-02T02:26:36.049Z,13.45
2023-02-02T02:29:27.156Z,12.10
2023-02-02T02:32:29.199Z,16.45
2023-02-02T02:35:09.877Z,5.43
2023-02-02T02:37:48.980Z,15.35
2023-02-02T02:40:21.891Z,9.82
2023-02-02T02:43:18.639Z,9.43
2023-02-02T02:45:45.663Z,12.35
2023-02-02T02:48:13.391Z,9.20
2023-02-02T02:50:39.972Z,10.48
2023-02-02T02:53:19.398Z,17.58
2023-02-02T02:55:58.246Z,9.73
2023-02-02T02:58:42.903Z,9.90
2023-02-02T03:01:44.260Z,13.48
2023-02-02T03:04:39.683Z,7.63
2023-02-02T03:07:31.782Z,9.65
2023-02-02T03:10:01.213Z,11.77
2023-02-02T03:12:28.023Z,9.88
2023-02-02T03:14:55.606Z,10.07
2023-02-02T03:17:22.884Z,8.70
2023-02-02T03:19:50.860Z,5.55
2023-02-02T03:22:17.758Z,10.63
2023-02-02T03:24:44.544Z,13.13
2023-02-02T03:27:11.426Z,10.38
2023-02-02T03:29:38.126Z,11.00
2023-02-02T03:32:05.055Z,10.32
2023-02-02T03:34:31.841Z,10.00
2023-02-02T03:36:58.455Z,10.18
2023-02-02T03:39:25.061Z,8.57
2023-02-02T03:41:51.663Z,10.90
2023-02-02T03:44:18.470Z,10.30
2023-02-02T03:46:45.272Z,9.73
2023-02-02T03:49:11.902Z,4.88
2023-02-02T03:51:38.568Z,9.18
2023-02-02T03:54:05.285Z,12.32
2023-02-02T03:56:31.872Z,11.57
2023-02-02T03:58:58.576Z,9.40
2023-02-02T04:01:29.503Z,6.95
2023-02-02T04:03:57.545Z,10.45
2023-02-02T04:06:25.385Z,6.38
2023-02-02T04:08:52.197Z,10.50
2023-02-02T04:11:19.157Z,15.30
2023-02-02T04:13:45.738Z,10.35
2023-02-02T04:16:13.045Z,17.20
2023-02-02T04:18:39.641Z,10.05
2023-02-02T04:21:07.377Z,10.93
2023-02-02T04:23:34.515Z,6.23
2023-02-02T04:26:01.415Z,13.13
2023-02-02T04:28:28.332Z,11.77
2023-02-02T04:30:56.363Z,14.90
2023-02-02T04:33:24.655Z,13.45
2023-02-02T04:35:51.335Z,10.13
2023-02-02T04:38:18.396Z,8.25
2023-02-02T04:40:47.342Z,12.35
2023-02-02T04:43:14.035Z,12.57
2023-02-02T04:45:42.246Z,8.15
2023-02-02T04:48:09.134Z,9.95
2023-02-02T04:50:35.705Z,9.68
2023-02-02T04:53:03.929Z,14.27
2023-02-02T04:55:30.544Z,9.52
2023-02-02T04:57:57.304Z,9.70
2023-02-02T05:00:23.988Z,10.50
2023-02-02T05:02:50.554Z,13.13
2023-02-02T05:05:17.188Z,11.32
2023-02-02T05:07:43.840Z,17.05
2023-02-02T05:10:11.264Z,7.45
2023-02-02T05:12:37.802Z,7.43
2023-02-02T05:15:05.606Z,11.50
2023-02-02T05:17:33.164Z,9.05
2023-02-02T05:19:59.762Z,9.95
2023-02-02T05:22:26.949Z,6.03
2023-02-02T05:24:53.607Z,14.13
2023-02-02T05:27:20.249Z,11.82
2023-02-02T05:29:47.589Z,9.35
2023-02-02T05:32:14.222Z,9.38
2023-02-02T05:34:40.864Z,10.23
2023-02-02T05:37:07.426Z,13.67
2023-02-02T05:39:34.039Z,11.02
2023-02-02T05:42:00.616Z,10.15
2023-02-02T05:44:27.241Z,8.55
2023-02-02T05:46:53.765Z,9.27
2023-02-02T05:49:20.329Z,7.10
2023-02-02T05:51:49.987Z,7.95
2023-02-02T05:54:20.318Z,9.32
2023-02-02T05:56:48.527Z,13.48
2023-02-02T05:59:17.389Z,14.15
2023-02-02T06:01:45.331Z,8.90
2023-02-02T06:04:12.388Z,9.43
2023-02-02T06:06:39.835Z,8.55
2023-02-02T06:09:07.047Z,11.60
2023-02-02T06:11:34.660Z,10.18
2023-02-02T06:14:02.800Z,9.13
2023-02-02T06:16:29.427Z,10.13
2023-02-02T06:18:56.246Z,7.82
2023-02-02T06:21:25.510Z,11.15
2023-02-02T06:23:52.396Z,5.78
2023-02-02T06:26:19.164Z,12.20
2023-02-02T06:28:50.670Z,13.40
2023-02-02T06:31:20.702Z,7.03
2023-02-02T06:33:52.169Z,7.88
2023-02-02T06:36:18.711Z,9.57
2023-02-02T06:38:49.256Z,12.23
2023-02-02T06:41:16.023Z,8.52
2023-02-02T06:43:42.652Z,12.95
2023-02-02T06:46:09.247Z,6.55
2023-02-02T06:48:35.824Z,11.00
2023-02-02T06:51:02.517Z,9.00
2023-02-02T06:53:29.218Z,5.57
2023-02-02T06:56:01.000Z,8.55
2023-02-02T06:58:28.854Z,7.50
2023-02-02T07:00:55.456Z,11.43
2023-02-02T07:03:22.389Z,9.50
2023-02-02T07:05:49.764Z,5.60
2023-02-02T07:08:16.924Z,11.52
2023-02-02T07:11:13.072Z,9.85
2023-02-02T07:13:30.988Z,9.60
2023-02-02T07:15:58.263Z,13.57
2023-02-02T07:18:24.983Z,8.88
2023-02-02T07:20:51.644Z,9.70
2023-02-02T07:23:18.315Z,6.97
2023-02-02T07:25:45.618Z,7.78
2023-02-02T07:28:12.202Z,8.07
2023-02-02T07:30:38.807Z,9.25
2023-02-02T07:33:05.376Z,12.10
2023-02-02T07:35:32.024Z,11.02
2023-02-02T07:37:58.728Z,8.68
2023-02-02T07:40:25.299Z,6.10
2023-02-02T07:42:51.945Z,7.15
2023-02-02T07:45:24.547Z,7.10
2023-02-02T07:47:58.994Z,10.95
2023-02-02T07:50:26.557Z,7.68
2023-02-02T07:52:53.677Z,7.13
2023-02-02T07:55:21.554Z,7.38
2023-02-02T07:57:48.266Z,9.75
2023-02-02T08:00:15.204Z,11.52
2023-02-02T08:02:43.803Z,10.32
2023-02-02T08:05:10.411Z,10.37
2023-02-02T08:07:37.187Z,7.43
2023-02-02T08:10:04.069Z,10.00
2023-02-02T08:12:30.795Z,10.00
2023-02-02T08:14:59.027Z,7.95
2023-02-02T08:17:25.616Z,10.00
2023-02-02T08:19:52.311Z,7.05
2023-02-02T08:22:20.384Z,9.40
2023-02-02T08:24:48.035Z,7.57
2023-02-02T08:27:16.159Z,8.88
2023-02-02T08:29:43.239Z,8.77
2023-02-02T08:32:09.862Z,10.68
2023-02-02T08:34:36.978Z,9.70
2023-02-02T08:37:04.050Z,10.73
2023-02-02T08:39:30.604Z,11.88
2023-02-02T08:41:57.279Z,14.20
2023-02-02T08:44:24.573Z,7.38
2023-02-02T08:46:53.874Z,11.27
2023-02-02T08:49:20.496Z,8.55
2023-02-02T08:51:47.122Z,10.80
2023-02-02T08:54:13.785Z,12.80
2023-02-02T08:56:40.425Z,13.55
2023-02-02T08:59:07.644Z,12.52
2023-02-02T09:01:35.895Z,8.10
2023-02-02T09:04:04.875Z,11.73
2023-02-02T09:06:33.100Z,11.50
2023-02-02T09:09:00.058Z,8.77
2023-02-02T09:11:27.228Z,5.28
2023-02-02T09:13:57.395Z,9.30
2023-02-02T09:16:25.762Z,12.23
2023-02-02T09:18:52.472Z,10.30
2023-02-02T09:21:20.261Z,9.93
2023-02-02T09:23:48.881Z,11.75
2023-02-02T09:26:26.870Z,6.30
2023-02-02T09:28:58.526Z,11.32
2023-02-02T09:31:26.234Z,13.20
2023-02-02T09:33:53.189Z,7.65
2023-02-02T09:36:22.547Z,7.95
2023-02-02T09:38:52.381Z,9.43
2023-02-02T09:41:37.378Z,7.20
2023-02-02T09:44:22.840Z,5.05
2023-02-02T09:46:58.493Z,9.00
2023-02-02T09:49:34.374Z,7.13
2023-02-02T09:52:10.625Z,8.82
2023-02-02T09:54:42.797Z,7.50
2023-02-02T09:57:20.920Z,8.85
2023-02-02T09:59:50.103Z,9.02
2023-02-02T10:02:38.659Z,4.85
2023-02-02T10:05:23.804Z,8.18
2023-02-02T10:07:56.633Z,9.55
2023-02-02T10:10:35.336Z,9.97
2023-02-02T10:13:03.861Z,5.57
2023-02-02T10:15:43.117Z,7.35
2023-02-02T10:18:24.860Z,7.95
2023-02-02T10:20:54.124Z,6.13
2023-02-02T10:23:28.166Z,9.52
2023-02-02T10:26:23.724Z,8.88
2023-02-02T10:29:12.039Z,10.95
2023-02-02T10:31:43.142Z,6.95
2023-02-02T10:34:18.902Z,9.55
2023-02-02T10:37:22.366Z,7.07
2023-02-02T10:40:15.294Z,7.68
2023-02-02T10:43:19.028Z,7.93
2023-02-02T10:45:50.156Z,7.75
2023-02-02T10:48:30.309Z,8.68
2023-02-02T10:50:59.597Z,6.53
2023-02-02T10:53:30.096Z,8.52
2023-02-02T10:55:58.669Z,6.60
2023-02-02T10:58:50.377Z,8.27
2023-02-02T11:01:18.151Z,5.47
2023-02-02T11:03:44.888Z,5.82
2023-02-02T11:06:30.761Z,8.63
2023-02-02T11:08:59.506Z,9.50
2023-02-02T11:11:39.522Z,5.93
2023-02-02T11:14:09.591Z,7.00
2023-02-02T11:16:43.083Z,8.27
2023-02-02T11:19:19.943Z,5.88
2023-02-02T11:21:58.284Z,5.57
2023-02-02T11:24:27.833Z,6.00
2023-02-02T11:27:01.437Z,6.72
2023-02-02T11:29:39.074Z,5.90
2023-02-02T11:32:30.675Z,5.35
2023-02-02T11:35:19.434Z,8.27
2023-02-02T11:38:06.246Z,9.10
2023-02-02T11:40:37.136Z,6.03
2023-02-02T11:43:26.383Z,6.88
2023-02-02T11:46:02.809Z,5.57
2023-02-02T11:48:36.537Z,8.60
2023-02-02T11:51:04.940Z,4.72
2023-02-02T11:53:48.900Z,9.23
2023-02-02T11:56:21.689Z,6.88
2023-02-02T11:58:50.152Z,8.45
2023-02-02T12:01:29.543Z,4.20
2023-02-02T12:03:59.217Z,11.65
2023-02-02T12:06:37.210Z,6.50
2023-02-02T12:09:17.923Z,5.10
2023-02-02T12:12:06.185Z,7.72
2023-02-02T12:14:44.699Z,8.95
2023-02-02T12:17:35.027Z,6.10
2023-02-02T12:20:26.403Z,6.30
2023-02-02T12:23:11.499Z,7.63
2023-02-02T12:25:47.315Z,10.68
2023-02-02T12:28:29.194Z,7.80
2023-02-02T12:31:20.656Z,7.65
2023-02-02T12:34:12.921Z,8.73
2023-02-02T12:37:08.916Z,7.10
2023-02-02T12:39:57.329Z,7.47
2023-02-02T12:42:51.380Z,9.27
2023-02-02T12:45:34.648Z,7.80
2023-02-02T12:48:14.273Z,6.97
2023-02-02T12:50:43.688Z,6.05
2023-02-02T12:53:20.458Z,9.10
2023-02-02T12:55:57.883Z,7.05
2023-02-02T12:58:50.025Z,9.23
2023-02-02T13:01:38.838Z,6.15
2023-02-02T13:04:18.365Z,11.85
2023-02-02T13:07:22.424Z,7.18
2023-02-02T13:10:08.330Z,7.57
2023-02-02T13:12:53.227Z,6.82
2023-02-02T13:15:24.082Z,4.22
2023-02-02T13:17:54.933Z,7.07
2023-02-02T13:21:00.960Z,7.05
2023-02-02T13:23:34.059Z,6.80
2023-02-02T13:26:03.642Z,4.57
2023-02-02T13:28:43.260Z,5.47
2023-02-02T13:31:24.755Z,7.37
2023-02-02T13:34:04.666Z,4.13
2023-02-02T13:36:37.313Z,6.55
2023-02-02T13:39:15.913Z,4.70
2023-02-02T13:41:43.484Z,5.82
2023-02-02T13:44:29.661Z,6.27
2023-02-02T13:47:03.407Z,6.30
2023-02-02T13:49:52.408Z,6.22
2023-02-02T13:52:25.272Z,4.50
2023-02-02T13:55:29.395Z,7.22
2023-02-02T13:58:35.860Z,6.00
2023-02-02T14:01:10.311Z,9.88
2023-02-02T14:03:51.297Z,5.88
2023-02-02T14:06:20.677Z,4.35
2023-02-02T14:09:04.287Z,5.57
2023-02-02T14:11:32.207Z,4.77
2023-02-02T14:14:28.254Z,4.05
2023-02-02T14:16:56.610Z,5.75
2023-02-02T14:19:35.728Z,3.13
2023-02-02T14:22:16.612Z,4.10
2023-02-02T14:24:50.148Z,4.60
2023-02-02T14:27:17.097Z,3.97
2023-02-02T14:29:47.238Z,3.88
2023-02-02T14:32:29.181Z,4.95
2023-02-02T14:35:20.323Z,4.80
2023-02-02T14:38:02.021Z,4.93
2023-02-02T14:40:54.620Z,3.30
2023-02-02T14:43:44.498Z,3.08
2023-02-02T14:46:14.846Z,4.70
2023-02-02T14:48:49.259Z,5.95
2023-02-02T14:51:29.347Z,5.27
2023-02-02T14:54:02.300Z,4.03
2023-02-02T14:56:50.989Z,5.30
2023-02-02T14:59:39.233Z,6.18
2023-02-02T15:02:17.297Z,4.65
2023-02-02T15:04:47.872Z,5.17
2023-02-02T15:07:23.481Z,8.07
2023-02-02T15:09:51.822Z,8.07
2023-02-02T15:12:29.542Z,9.13
2023-02-02T15:15:15.082Z,5.05
2023-02-02T15:17:41.860Z,4.53
2023-02-02T15:20:20.975Z,4.78
2023-02-02T15:22:47.845Z,5.50
2023-02-02T15:25:23.574Z,6.18
2023-02-02T15:27:57.116Z,4.75
2023-02-02T15:30:26.369Z,8.00
2023-02-02T15:32:53.593Z,6.30
2023-02-02T15:35:24.617Z,5.53
2023-02-02T15:38:00.705Z,3.83
2023-02-02T15:40:29.770Z,3.97
2023-02-02T15:43:01.518Z,4.27
2023-02-02T15:45:28.065Z,3.47
2023-02-02T15:47:59.041Z,5.05
2023-02-02T15:50:27.017Z,3.38
2023-02-02T15:52:55.241Z,7.13
2023-02-02T15:55:30.013Z,3.90
2023-02-02T15:57:56.631Z,3.45
2023-02-02T16:00:29.977Z,4.90
2023-02-02T16:03:05.553Z,3.35
2023-02-02T16:05:32.074Z,5.45
2023-02-02T16:08:07.793Z,4.40
2023-02-02T16:10:35.480Z,4.65
2023-02-02T16:13:02.771Z,5.25
2023-02-02T16:15:32.061Z,6.18
2023-02-02T16:18:00.696Z,4.80
2023-02-02T16:20:29.431Z,4.73
2023-02-02T16:23:01.671Z,5.20
2023-02-02T16:25:32.559Z,4.07
2023-02-02T16:28:03.450Z,6.15
2023-02-02T16:30:35.726Z,4.97
2023-02-02T16:33:26.303Z,5.10
2023-02-02T16:35:53.042Z,6.20
2023-02-02T16:38:33.967Z,6.93
2023-02-02T16:41:03.318Z,7.50
2023-02-02T16:43:30.697Z,7.65
2023-02-02T16:46:02.265Z,6.43
2023-02-02T16:48:59.813Z,7.15
2023-02-02T16:51:28.310Z,7.35
2023-02-02T16:54:13.895Z,7.00
2023-02-02T16:57:01.923Z,6.35
2023-02-02T16:59:37.824Z,6.37
2023-02-02T17:02:21.100Z,8.85
2023-02-02T17:04:51.181Z,8.95
2023-02-02T17:07:18.339Z,9.98
2023-02-02T17:09:47.922Z,9.13
2023-02-02T17:12:32.067Z,8.47
2023-02-02T17:15:05.580Z,8.48
2023-02-02T17:17:32.264Z,8.10
2023-02-02T17:19:58.817Z,8.15
2023-02-02T17:22:27.661Z,10.68
2023-02-02T17:24:54.268Z,11.17
2023-02-02T17:27:41.211Z,13.23
2023-02-02T17:30:10.502Z,9.82
2023-02-02T17:32:37.440Z,15.55
2023-02-02T17:35:14.203Z,31.60
2023-02-02T17:37:43.325Z,34.07
2023-02-02T17:40:17.991Z,37.65
2023-02-02T17:42:46.862Z,30.83
2023-02-02T17:45:34.174Z,20.55
2023-02-02T17:48:01.538Z,14.25
2023-02-02T17:50:29.306Z,10.67
2023-02-02T17:52:55.961Z,14.25
2023-02-02T17:55:25.402Z,13.25
2023-02-02T17:57:53.421Z,10.75
2023-02-02T18:00:23.218Z,13.52
2023-02-02T18:02:54.116Z,14.43
2023-02-02T18:05:21.853Z,16.25
2023-02-02T18:07:48.386Z,16.10
2023-02-02T18:10:16.546Z,17.42
2023-02-02T18:12:43.179Z,18.13
2023-02-02T18:15:14.248Z,17.07
2023-02-02T18:17:41.421Z,17.50
2023-02-02T18:20:09.545Z,21.30
2023-02-02T18:22:36.183Z,16.45
2023-02-02T18:25:04.174Z,16.00
2023-02-02T18:27:30.968Z,15.63
2023-02-02T18:29:57.687Z,13.57
2023-02-02T18:32:24.524Z,13.55
2023-02-02T18:34:55.380Z,16.17
2023-02-02T18:37:24.027Z,18.98
2023-02-02T18:39:50.992Z,17.33
2023-02-02T18:42:17.712Z,14.95
2023-02-02T18:44:44.927Z,16.52
2023-02-02T18:47:11.594Z,15.95
2023-02-02T18:49:38.332Z,12.90
2023-02-02T18:52:05.284Z,14.57
2023-02-02T18:54:33.836Z,13.43
2023-02-02T18:57:00.449Z,11.93
2023-02-02T18:59:28.941Z,14.80
2023-02-02T19:01:55.831Z,14.25
2023-02-02T19:04:22.593Z,17.43
2023-02-02T19:07:07.819Z,18.48
2023-02-02T19:09:34.814Z,18.25
2023-02-02T19:12:02.213Z,21.23
2023-02-02T19:14:36.779Z,24.08
2023-02-02T19:17:20.125Z,21.93
2023-02-02T19:19:46.885Z,22.33
2023-02-02T19:22:24.485Z,21.48
2023-02-02T19:24:51.133Z,22.70
2023-02-02T19:27:23.219Z,24.67
2023-02-02T19:29:54.095Z,25.40
2023-02-02T19:32:23.474Z,28.90
2023-02-02T19:34:53.243Z,25.02
2023-02-02T19:37:25.863Z,24.58
2023-02-02T19:40:10.684Z,24.13
2023-02-02T19:42:44.053Z,27.47
2023-02-02T19:45:21.394Z,25.05
2023-02-02T19:47:48.594Z,25.20
2023-02-02T19:50:19.585Z,25.98
2023-02-02T19:52:50.688Z,27.00
2023-02-02T19:55:23.379Z,29.93
2023-02-02T19:57:51.123Z,24.83
2023-02-02T20:00:22.481Z,28.17
2023-02-02T20:02:58.542Z,26.33
2023-02-02T20:05:28.637Z,32.85
2023-02-02T20:08:23.004Z,28.03
2023-02-02T20:10:51.212Z,13.35
2023-02-02T20:13:23.617Z,11.48
2023-02-02T20:15:52.693Z,13.00
2023-02-02T20:18:23.363Z,14.93
2023-02-02T20:20:54.364Z,16.70
2023-02-02T20:23:36.846Z,15.48
2023-02-02T20:26:14.168Z,17.33
2023-02-02T20:28:44.923Z,18.70
2023-02-02T20:31:15.562Z,22.23
2023-02-02T20:33:46.572Z,20.63
2023-02-02T20:36:30.898Z,20.90
2023-02-02T20:39:11.994Z,20.00
2023-02-02T20:41:38.583Z,17.88
2023-02-02T20:44:05.180Z,22.88
2023-02-02T20:46:31.786Z,22.53
2023-02-02T20:48:58.452Z,22.25
2023-02-02T20:51:25.189Z,28.20
2023-02-02T20:53:55.453Z,24.83
2023-02-02T20:56:23.452Z,23.27
2023-02-02T20:58:50.708Z,23.73
2023-02-02T21:01:19.336Z,25.73
2023-02-02T21:03:46.482Z,24.27
2023-02-02T21:06:13.042Z,24.83
2023-02-02T21:08:39.628Z,28.15
2023-02-02T21:11:06.405Z,24.10
2023-02-02T21:13:33.079Z,24.30
2023-02-02T21:15:59.630Z,27.33
2023-02-02T21:18:26.219Z,27.17
2023-02-02T21:20:52.928Z,27.45
2023-02-02T21:23:20.249Z,26.03
2023-02-02T21:25:46.865Z,29.65
2023-02-02T21:28:13.587Z,27.17
2023-02-02T21:30:40.738Z,29.35
2023-02-02T21:33:07.432Z,29.08
2023-02-02T21:35:35.523Z,27.87
2023-02-02T21:38:12.414Z,29.13
2023-02-02T21:40:40.295Z,25.42
2023-02-02T21:43:14.485Z,26.92
2023-02-02T21:45:43.896Z,26.10
2023-02-02T21:48:19.584Z,25.57
2023-02-02T21:50:46.916Z,26.58
2023-02-02T21:53:25.249Z,23.52
2023-02-02T21:56:00.285Z,24.08
2023-02-02T21:58:38.470Z,27.67
2023-02-02T22:01:17.212Z,24.00
2023-02-02T22:03:46.670Z,28.45
2023-02-02T22:06:31.995Z,25.88
2023-02-02T22:09:11.027Z,23.13
2023-02-02T22:11:49.928Z,23.77
2023-02-02T22:14:40.288Z,24.33
2023-02-02T22:17:40.517Z,22.30
2023-02-02T22:20:17.618Z,22.48
2023-02-02T22:22:50.051Z,21.67
2023-02-02T22:25:16.873Z,25.05
2023-02-02T22:27:58.268Z,24.07
2023-02-02T22:30:37.546Z,22.08
2023-02-02T22:33:05.992Z,22.05
2023-02-02T22:35:33.592Z,19.95
2023-02-02T22:38:00.669Z,21.98
2023-02-02T22:40:27.948Z,21.13
2023-02-02T22:42:57.283Z,18.90
2023-02-02T22:45:25.065Z,18.55
2023-02-02T22:47:51.894Z,21.92
2023-02-02T22:50:28.100Z,18.83
2023-02-02T22:52:55.640Z,19.27
2023-02-02T22:55:22.717Z,18.55
2023-02-02T22:57:49.664Z,22.85
2023-02-02T23:00:19.597Z,18.08
2023-02-02T23:02:46.474Z,16.90
2023-02-02T23:05:14.725Z,19.67
2023-02-02T23:07:45.670Z,18.35
2023-02-02T23:10:14.734Z,17.00
2023-02-02T23:12:42.837Z,16.77
2023-02-02T23:15:10.356Z,16.40
2023-02-02T23:17:37.038Z,16.57
2023-02-02T23:20:06.125Z,17.88
2023-02-02T23:22:32.955Z,14.68
2023-02-02T23:24:59.891Z,17.58
2023-02-02T23:27:26.801Z,17.17
2023-02-02T23:29:53.436Z,16.90
2023-02-02T23:32:20.168Z,17.38
2023-02-02T23:34:46.813Z,17.92
2023-02-02T23:37:13.571Z,15.60
2023-02-02T23:39:40.197Z,15.95
2023-02-02T23:42:06.823Z,12.60
2023-02-02T23:44:33.430Z,16.40
2023-02-02T23:47:01.826Z,16.77
2023-02-02T23:49:33.835Z,14.55
2023-02-02T23:52:00.908Z,16.13
2023-02-02T23:54:28.358Z,17.60
2023-02-02T23:56:56.104Z,18.08
2023-02-02T23:59:22.933Z,17.08
